Time;durP1;ratioP1;P1;durP2;ratioP2;P2;SDS_P1;SDS_P2;PMS_P1;PMS_P2;Temp;Humidity;BMP_temperature;BMP_pressure;BME280_temperature;BME280_humidity;BME280_pressure;Samples;Min_cycle;Max_cycle;Signal;HPM_P1;HPM_P2
2022/07/16 00:02:30;;;;;;;10.23;2.20;;;;;;;;;;5004772;28;20065;-76
2022/07/16 00:04:56;;;;;;;5.78;2.28;;;;;;;;;;5004486;28;21704;-76
2022/07/16 00:07:21;;;;;;;5.53;1.80;;;;;;;;;;5019264;28;20033;-76
2022/07/16 00:09:46;;;;;;;6.00;2.15;;;;;;;;;;4990408;28;20116;-75
2022/07/16 00:12:12;;;;;;;3.97;2.10;;;;;;;;;;4999677;28;20052;-76
2022/07/16 00:14:37;;;;;;;4.40;2.25;;;;;;;;;;4966072;28;20112;-76
2022/07/16 00:17:02;;;;;;;4.45;1.70;;;;;;;;;;4987575;28;20068;-75
2022/07/16 00:19:28;;;;;;;4.70;1.92;;;;;;;;;;4971551;28;20133;-76
2022/07/16 00:21:55;;;;;;;5.32;2.30;;;;;;;;;;4987383;28;20033;-76
2022/07/16 00:24:21;;;;;;;5.85;2.17;;;;;;;;;;5000645;28;20026;-76
2022/07/16 00:26:49;;;;;;;6.80;1.95;;;;;;;;;;5019158;28;20104;-75
2022/07/16 00:29:15;;;;;;;5.05;2.30;;;;;;;;;;5018921;28;20539;-76
2022/07/16 00:31:41;;;;;;;4.63;1.70;;;;;;;;;;5001579;28;20038;-76
2022/07/16 00:34:07;;;;;;;3.40;1.80;;;;;;;;;;4990661;28;20038;-76
2022/07/16 00:36:33;;;;;;;10.35;2.00;;;;;;;;;;4955664;28;20034;-75
2022/07/16 00:38:59;;;;;;;3.95;1.77;;;;;;;;;;5000780;28;20068;-75
2022/07/16 00:41:24;;;;;;;7.45;2.08;;;;;;;;;;5003759;28;20323;-76
2022/07/16 00:43:58;;;;;;;3.05;1.52;;;;;;;;;;4989576;28;20033;-75
2022/07/16 00:46:24;;;;;;;4.97;1.60;;;;;;;;;;5016899;28;20042;-76
2022/07/16 00:48:49;;;;;;;4.38;2.33;;;;;;;;;;4991940;28;20176;-75
2022/07/16 00:51:15;;;;;;;9.65;2.13;;;;;;;;;;5011130;28;20119;-75
2022/07/16 00:53:40;;;;;;;4.78;1.70;;;;;;;;;;4983519;28;20118;-75
2022/07/16 00:56:10;;;;;;;6.72;2.05;;;;;;;;;;5021151;28;20347;-76
2022/07/16 00:58:39;;;;;;;4.80;1.83;;;;;;;;;;5002773;28;20038;-76
2022/07/16 01:01:05;;;;;;;4.47;2.05;;;;;;;;;;4990394;28;20040;-76
2022/07/16 01:03:31;;;;;;;4.70;1.70;;;;;;;;;;5006129;28;20478;-76
2022/07/16 01:05:57;;;;;;;5.95;1.83;;;;;;;;;;4998652;28;20052;-75
2022/07/16 01:08:22;;;;;;;4.38;1.70;;;;;;;;;;4995212;28;20034;-77
2022/07/16 01:10:48;;;;;;;5.40;1.95;;;;;;;;;;4984809;28;20038;-75
2022/07/16 01:13:16;;;;;;;8.35;2.45;;;;;;;;;;5003813;28;20462;-77
2022/07/16 01:15:41;;;;;;;4.15;1.92;;;;;;;;;;4985473;28;20054;-76
2022/07/16 01:18:06;;;;;;;7.15;2.33;;;;;;;;;;4986592;28;20049;-76
2022/07/16 01:20:32;;;;;;;6.07;1.98;;;;;;;;;;4969243;28;20112;-76
2022/07/16 01:22:57;;;;;;;6.35;2.13;;;;;;;;;;5003650;28;20049;-76
2022/07/16 01:25:22;;;;;;;5.88;2.20;;;;;;;;;;4984197;28;20030;-76
2022/07/16 01:27:48;;;;;;;6.28;2.20;;;;;;;;;;5003411;28;20117;-77
2022/07/16 01:30:13;;;;;;;5.45;2.28;;;;;;;;;;5002014;28;20065;-77
2022/07/16 01:32:39;;;;;;;7.65;2.22;;;;;;;;;;4987043;28;20048;-75
2022/07/16 01:35:04;;;;;;;6.22;1.83;;;;;;;;;;4991229;28;20065;-75
2022/07/16 01:37:30;;;;;;;5.38;2.00;;;;;;;;;;5017666;28;20029;-76
2022/07/16 01:39:57;;;;;;;5.20;1.80;;;;;;;;;;5018268;28;20525;-76
2022/07/16 01:42:22;;;;;;;6.07;2.30;;;;;;;;;;5002754;28;20367;-77
2022/07/16 01:44:47;;;;;;;6.47;2.10;;;;;;;;;;5000201;28;20111;-76
2022/07/16 01:47:13;;;;;;;7.97;2.13;;;;;;;;;;5001727;28;20454;-75
2022/07/16 01:49:39;;;;;;;8.85;1.75;;;;;;;;;;5017073;28;20117;-76
2022/07/16 01:52:09;;;;;;;4.50;2.05;;;;;;;;;;5001548;28;20068;-76
2022/07/16 01:54:35;;;;;;;4.60;2.45;;;;;;;;;;4987622;28;20465;-76
2022/07/16 01:57:00;;;;;;;4.63;1.95;;;;;;;;;;4984498;28;20101;-76
2022/07/16 01:59:26;;;;;;;4.72;2.20;;;;;;;;;;4985646;28;20121;-76
2022/07/16 02:01:51;;;;;;;5.20;2.10;;;;;;;;;;5001493;28;20034;-77
2022/07/16 02:04:17;;;;;;;4.35;2.08;;;;;;;;;;4983742;28;20701;-75
2022/07/16 02:06:42;;;;;;;7.15;2.53;;;;;;;;;;5007947;28;20072;-75
2022/07/16 02:09:07;;;;;;;6.82;3.05;;;;;;;;;;5014127;28;20789;-76
2022/07/16 02:11:33;;;;;;;11.73;3.50;;;;;;;;;;4983616;28;20076;-76
2022/07/16 02:13:58;;;;;;;8.63;3.17;;;;;;;;;;5017017;28;20053;-76
2022/07/16 02:16:23;;;;;;;13.98;4.80;;;;;;;;;;4978272;28;20052;-77
2022/07/16 02:18:49;;;;;;;7.20;4.53;;;;;;;;;;4982599;28;20042;-76
2022/07/16 02:21:14;;;;;;;7.60;5.60;;;;;;;;;;4982505;28;20117;-76
2022/07/16 02:23:39;;;;;;;11.60;5.88;;;;;;;;;;4972784;28;20461;-76
2022/07/16 02:26:05;;;;;;;10.75;5.55;;;;;;;;;;5007502;28;20216;-76
2022/07/16 02:28:30;;;;;;;9.70;6.68;;;;;;;;;;4986917;28;20061;-76
2022/07/16 02:30:55;;;;;;;11.32;5.97;;;;;;;;;;5015607;28;20402;-78
2022/07/16 02:33:21;;;;;;;14.82;8.52;;;;;;;;;;4993607;28;20365;-75
2022/07/16 02:35:46;;;;;;;9.10;7.10;;;;;;;;;;4983595;28;20037;-75
2022/07/16 02:38:12;;;;;;;18.98;9.75;;;;;;;;;;5000665;28;20168;-76
2022/07/16 02:40:38;;;;;;;13.50;8.73;;;;;;;;;;5017336;28;20390;-76
2022/07/16 02:43:04;;;;;;;12.70;8.27;;;;;;;;;;5000373;28;20990;-76
2022/07/16 02:45:29;;;;;;;13.43;9.20;;;;;;;;;;4984224;28;20049;-76
2022/07/16 02:47:55;;;;;;;21.98;10.00;;;;;;;;;;5001195;28;20030;-76
2022/07/16 02:50:21;;;;;;;17.63;10.52;;;;;;;;;;5002095;28;20034;-76
2022/07/16 02:52:47;;;;;;;13.27;9.23;;;;;;;;;;5000747;28;20128;-75
2022/07/16 02:55:12;;;;;;;15.27;10.68;;;;;;;;;;4984077;28;20121;-75
2022/07/16 02:57:37;;;;;;;17.70;11.57;;;;;;;;;;4981440;28;20049;-76
2022/07/16 03:00:08;;;;;;;14.27;10.43;;;;;;;;;;5002245;28;20502;-76
2022/07/16 03:02:34;;;;;;;18.73;11.73;;;;;;;;;;5001255;28;20034;-77
2022/07/16 03:04:59;;;;;;;16.23;11.30;;;;;;;;;;4999064;28;20033;-77
2022/07/16 03:07:25;;;;;;;19.02;10.65;;;;;;;;;;4999697;28;20029;-76
2022/07/16 03:09:51;;;;;;;14.40;11.25;;;;;;;;;;4999400;28;20056;-75
2022/07/16 03:12:18;;;;;;;24.33;10.77;;;;;;;;;;4998588;28;20042;-75
2022/07/16 03:14:43;;;;;;;12.68;9.23;;;;;;;;;;4983914;28;20494;-75
2022/07/16 03:17:08;;;;;;;15.93;9.00;;;;;;;;;;5004230;28;20026;-77
2022/07/16 03:19:36;;;;;;;12.65;8.10;;;;;;;;;;5004408;28;20064;-76
2022/07/16 03:22:02;;;;;;;11.43;7.60;;;;;;;;;;5004668;28;20462;-76
2022/07/16 03:24:28;;;;;;;16.02;8.38;;;;;;;;;;4987247;28;20068;-75
2022/07/16 03:26:53;;;;;;;12.63;6.95;;;;;;;;;;5019836;28;20061;-76
2022/07/16 03:29:19;;;;;;;18.27;7.03;;;;;;;;;;5021134;28;20058;-77
2022/07/16 03:31:44;;;;;;;9.73;6.30;;;;;;;;;;4971798;28;20061;-75
2022/07/16 03:34:09;;;;;;;13.80;6.18;;;;;;;;;;5002911;28;20482;-76
2022/07/16 03:36:35;;;;;;;8.48;5.63;;;;;;;;;;5006703;28;20061;-77
2022/07/16 03:39:04;;;;;;;13.82;5.57;;;;;;;;;;5004379;28;20046;-76
2022/07/16 03:41:31;;;;;;;14.50;5.70;;;;;;;;;;5000544;28;20065;-76
2022/07/16 03:43:57;;;;;;;10.25;5.10;;;;;;;;;;5002814;28;20033;-76
2022/07/16 03:46:22;;;;;;;14.30;5.50;;;;;;;;;;5004463;28;20077;-76
2022/07/16 03:48:48;;;;;;;9.73;4.88;;;;;;;;;;4991467;28;20042;-76
2022/07/16 03:51:13;;;;;;;9.43;4.85;;;;;;;;;;5003733;28;20045;-76
2022/07/16 03:53:38;;;;;;;10.55;4.57;;;;;;;;;;5018446;28;20090;-76
2022/07/16 03:56:04;;;;;;;7.97;4.65;;;;;;;;;;4987501;28;20057;-75
2022/07/16 03:58:30;;;;;;;10.50;4.93;;;;;;;;;;5018321;28;20026;-76
2022/07/16 04:00:55;;;;;;;11.07;4.47;;;;;;;;;;5003871;28;20048;-76
2022/07/16 04:03:20;;;;;;;13.65;4.30;;;;;;;;;;4987761;28;20026;-75
2022/07/16 04:05:46;;;;;;;10.32;4.05;;;;;;;;;;4972344;28;20512;-77
2022/07/16 04:08:11;;;;;;;11.65;3.90;;;;;;;;;;5001633;28;20387;-76
2022/07/16 04:10:36;;;;;;;11.20;3.92;;;;;;;;;;5022658;28;20081;-76
2022/07/16 04:13:02;;;;;;;21.40;4.47;;;;;;;;;;5006416;28;20385;-76
2022/07/16 04:15:27;;;;;;;9.95;3.45;;;;;;;;;;5021147;28;20224;-76
2022/07/16 04:17:53;;;;;;;9.98;4.30;;;;;;;;;;5022421;28;20116;-76
2022/07/16 04:20:18;;;;;;;10.15;4.03;;;;;;;;;;4995097;28;20505;-76
2022/07/16 04:22:43;;;;;;;10.52;4.15;;;;;;;;;;5005032;28;20034;-76
2022/07/16 04:25:09;;;;;;;14.30;4.50;;;;;;;;;;5001469;28;20050;-76
2022/07/16 04:27:34;;;;;;;12.02;3.72;;;;;;;;;;5001748;28;20436;-76
2022/07/16 04:29:59;;;;;;;11.02;3.53;;;;;;;;;;5016726;28;20137;-77
2022/07/16 04:32:25;;;;;;;11.07;3.78;;;;;;;;;;4984262;28;20080;-76
2022/07/16 04:34:50;;;;;;;7.70;4.70;;;;;;;;;;4995806;28;20397;-77
2022/07/16 04:37:16;;;;;;;10.98;4.13;;;;;;;;;;5002866;28;21736;-76
2022/07/16 04:39:41;;;;;;;11.50;3.65;;;;;;;;;;5002814;28;20042;-76
2022/07/16 04:42:06;;;;;;;8.85;3.78;;;;;;;;;;5002268;28;20077;-76
2022/07/16 04:44:32;;;;;;;9.38;3.35;;;;;;;;;;4985652;28;20057;-76
2022/07/16 04:46:57;;;;;;;10.35;3.33;;;;;;;;;;4999808;28;20073;-76
2022/07/16 04:49:22;;;;;;;10.43;3.33;;;;;;;;;;5003766;28;20494;-75
2022/07/16 04:51:48;;;;;;;11.48;3.85;;;;;;;;;;5003339;28;20061;-75
2022/07/16 04:54:13;;;;;;;8.55;3.88;;;;;;;;;;5005528;28;20044;-75
2022/07/16 04:56:38;;;;;;;11.77;3.63;;;;;;;;;;4989804;28;20118;-75
2022/07/16 04:59:04;;;;;;;11.25;4.13;;;;;;;;;;5019125;28;20064;-76
2022/07/16 05:01:29;;;;;;;12.00;3.78;;;;;;;;;;5001863;28;20072;-77
2022/07/16 05:03:54;;;;;;;8.05;3.38;;;;;;;;;;5018233;28;20037;-69
2022/07/16 05:06:22;;;;;;;8.80;3.38;;;;;;;;;;5001948;28;20404;-70
2022/07/16 05:08:47;;;;;;;10.50;3.75;;;;;;;;;;5001304;28;20057;-70
2022/07/16 05:11:12;;;;;;;6.05;3.45;;;;;;;;;;5001337;28;20125;-71
2022/07/16 05:13:38;;;;;;;11.23;3.70;;;;;;;;;;5000648;28;20096;-70
2022/07/16 05:16:03;;;;;;;12.13;3.50;;;;;;;;;;5000396;28;20049;-71
2022/07/16 05:18:29;;;;;;;9.45;3.40;;;;;;;;;;4999650;28;20042;-71
2022/07/16 05:20:54;;;;;;;9.75;3.63;;;;;;;;;;5000888;28;20044;-69
2022/07/16 05:23:21;;;;;;;8.65;2.70;;;;;;;;;;5001758;28;20026;-70
2022/07/16 05:25:46;;;;;;;11.25;3.25;;;;;;;;;;4999140;28;22373;-71
2022/07/16 05:28:12;;;;;;;13.43;2.97;;;;;;;;;;5001101;28;20022;-70
2022/07/16 05:30:37;;;;;;;10.02;2.80;;;;;;;;;;5015865;28;20026;-70
2022/07/16 05:33:03;;;;;;;8.88;2.35;;;;;;;;;;5015935;28;20060;-71
2022/07/16 05:35:29;;;;;;;14.07;3.10;;;;;;;;;;5017583;28;20031;-70
2022/07/16 05:37:55;;;;;;;10.80;2.67;;;;;;;;;;5003914;28;20030;-71
2022/07/16 05:40:20;;;;;;;6.95;2.33;;;;;;;;;;4999198;28;20033;-71
2022/07/16 05:42:46;;;;;;;13.38;2.80;;;;;;;;;;4997609;28;20030;-70
2022/07/16 05:45:11;;;;;;;10.15;2.33;;;;;;;;;;5015510;28;20046;-70
2022/07/16 05:47:36;;;;;;;12.15;2.42;;;;;;;;;;5001602;28;20431;-70
2022/07/16 05:50:03;;;;;;;12.52;2.90;;;;;;;;;;5017388;28;20096;-71
2022/07/16 05:52:29;;;;;;;13.75;2.88;;;;;;;;;;5013232;28;20038;-70
2022/07/16 05:54:55;;;;;;;11.98;2.35;;;;;;;;;;5000533;28;20030;-70
2022/07/16 05:57:20;;;;;;;9.90;2.13;;;;;;;;;;4999267;28;20026;-70
2022/07/16 05:59:45;;;;;;;11.18;2.10;;;;;;;;;;5000767;28;20501;-71
2022/07/16 06:02:11;;;;;;;8.88;1.98;;;;;;;;;;5011071;28;20026;-70
2022/07/16 06:04:36;;;;;;;10.30;1.77;;;;;;;;;;5003931;28;20490;-71
2022/07/16 06:07:02;;;;;;;8.07;1.70;;;;;;;;;;5019369;28;20144;-71
2022/07/16 06:09:27;;;;;;;10.27;1.92;;;;;;;;;;5010601;28;20049;-70
2022/07/16 06:11:52;;;;;;;8.20;1.95;;;;;;;;;;5013091;28;20041;-70
2022/07/16 06:14:18;;;;;;;8.00;2.67;;;;;;;;;;5015329;28;20061;-71
2022/07/16 06:16:43;;;;;;;9.70;2.38;;;;;;;;;;4998226;28;20049;-74
2022/07/16 06:19:08;;;;;;;8.20;2.42;;;;;;;;;;4999643;28;20026;-70
2022/07/16 06:21:34;;;;;;;6.30;1.60;;;;;;;;;;4990940;28;20057;-71
2022/07/16 06:23:59;;;;;;;12.55;2.28;;;;;;;;;;4980436;28;20674;-73
2022/07/16 06:26:24;;;;;;;7.60;2.00;;;;;;;;;;5020775;28;20061;-72
2022/07/16 06:28:50;;;;;;;9.77;2.15;;;;;;;;;;4998179;28;20068;-71
2022/07/16 06:31:15;;;;;;;12.77;2.00;;;;;;;;;;4998154;28;20072;-71
2022/07/16 06:33:40;;;;;;;8.65;1.92;;;;;;;;;;4979162;28;20054;-72
2022/07/16 06:36:06;;;;;;;8.38;2.05;;;;;;;;;;5012084;28;20065;-70
2022/07/16 06:38:32;;;;;;;8.80;1.73;;;;;;;;;;5000489;28;20620;-72
2022/07/16 06:40:57;;;;;;;12.27;2.15;;;;;;;;;;4968274;28;20030;-71
2022/07/16 06:43:23;;;;;;;8.45;1.52;;;;;;;;;;4982846;28;20048;-72
2022/07/16 06:45:48;;;;;;;7.07;2.00;;;;;;;;;;4982195;28;20093;-72
2022/07/16 06:48:13;;;;;;;8.65;1.73;;;;;;;;;;4982598;28;20097;-71
2022/07/16 06:50:39;;;;;;;6.53;1.50;;;;;;;;;;5016669;28;20068;-73
2022/07/16 06:53:04;;;;;;;8.82;1.42;;;;;;;;;;5006494;28;20548;-71
2022/07/16 06:55:30;;;;;;;6.65;1.60;;;;;;;;;;4987784;28;20037;-71
2022/07/16 06:57:55;;;;;;;9.50;1.75;;;;;;;;;;5005444;28;20037;-72
2022/07/16 07:00:22;;;;;;;9.48;1.73;;;;;;;;;;5007287;28;20084;-72
2022/07/16 07:02:47;;;;;;;5.65;1.30;;;;;;;;;;5004055;28;20496;-72
2022/07/16 07:05:12;;;;;;;9.85;1.88;;;;;;;;;;5021022;28;20125;-76
2022/07/16 07:07:38;;;;;;;7.13;1.23;;;;;;;;;;5009087;28;20117;-72
2022/07/16 07:10:04;;;;;;;5.95;1.38;;;;;;;;;;5006323;28;20108;-72
2022/07/16 07:12:29;;;;;;;9.15;1.77;;;;;;;;;;5021313;28;20351;-71
2022/07/16 07:14:54;;;;;;;10.73;1.52;;;;;;;;;;4996521;28;20129;-73
2022/07/16 07:17:20;;;;;;;7.65;1.20;;;;;;;;;;5002349;28;21153;-72
2022/07/16 07:19:45;;;;;;;6.00;1.83;;;;;;;;;;5008714;28;20087;-77
2022/07/16 07:22:10;;;;;;;9.05;1.50;;;;;;;;;;5021280;28;20386;-74
2022/07/16 07:24:36;;;;;;;7.05;1.48;;;;;;;;;;5022331;28;20157;-74
2022/07/16 07:27:01;;;;;;;8.07;1.70;;;;;;;;;;5006430;28;20065;-75
2022/07/16 07:29:26;;;;;;;5.75;1.40;;;;;;;;;;5006148;28;20409;-74
2022/07/16 07:31:52;;;;;;;11.00;2.00;;;;;;;;;;5002480;28;20113;-74
2022/07/16 07:34:17;;;;;;;6.15;1.33;;;;;;;;;;5022158;28;20509;-75
2022/07/16 07:36:42;;;;;;;7.03;1.70;;;;;;;;;;5003203;28;20116;-73
2022/07/16 07:39:08;;;;;;;8.68;1.58;;;;;;;;;;5019571;28;20116;-75
2022/07/16 07:41:37;;;;;;;6.30;1.42;;;;;;;;;;5003188;28;20022;-73
2022/07/16 07:44:02;;;;;;;5.68;0.95;;;;;;;;;;5003247;28;20046;-74
2022/07/16 07:46:29;;;;;;;3.58;0.85;;;;;;;;;;4987131;28;20073;-74
2022/07/16 07:48:54;;;;;;;10.18;1.90;;;;;;;;;;5017665;28;20026;-74
2022/07/16 07:51:20;;;;;;;9.95;1.35;;;;;;;;;;5018887;28;20037;-74
2022/07/16 07:53:45;;;;;;;4.60;1.30;;;;;;;;;;4988957;28;20064;-74
2022/07/16 07:56:12;;;;;;;5.47;1.75;;;;;;;;;;5006566;28;20056;-75
2022/07/16 07:58:38;;;;;;;8.15;1.63;;;;;;;;;;5005535;28;20038;-74
2022/07/16 08:01:03;;;;;;;6.97;1.02;;;;;;;;;;5010655;28;20034;-73
2022/07/16 08:03:29;;;;;;;8.80;1.88;;;;;;;;;;4995896;28;20585;-75
2022/07/16 08:05:54;;;;;;;5.43;1.30;;;;;;;;;;5001165;28;20486;-73
2022/07/16 08:08:19;;;;;;;6.30;1.45;;;;;;;;;;5002336;28;20044;-73
2022/07/16 08:10:45;;;;;;;8.18;1.73;;;;;;;;;;5003698;28;20040;-73
2022/07/16 08:13:10;;;;;;;6.57;1.20;;;;;;;;;;5023072;28;20056;-73
2022/07/16 08:15:36;;;;;;;5.05;1.25;;;;;;;;;;4987572;28;20038;-73
2022/07/16 08:18:01;;;;;;;5.85;1.17;;;;;;;;;;5004948;28;20062;-73
2022/07/16 08:20:26;;;;;;;6.55;1.38;;;;;;;;;;5002831;28;20058;-73
2022/07/16 08:22:52;;;;;;;11.38;1.38;;;;;;;;;;5004082;28;20050;-73
2022/07/16 08:28:01;;;;;;;6.53;1.75;;;;;;;;;;4992200;28;20041;-73
2022/07/16 08:30:26;;;;;;;8.98;1.60;;;;;;;;;;5018917;28;20057;-72
2022/07/16 08:32:52;;;;;;;4.97;0.90;;;;;;;;;;5000177;28;20041;-73
2022/07/16 08:35:17;;;;;;;8.35;1.38;;;;;;;;;;5001489;28;20038;-72
2022/07/16 08:37:44;;;;;;;10.20;1.73;;;;;;;;;;5002942;28;20109;-73
2022/07/16 08:40:11;;;;;;;6.35;1.50;;;;;;;;;;5001410;28;20141;-72
2022/07/16 08:42:37;;;;;;;9.27;1.50;;;;;;;;;;5003451;28;20038;-73
2022/07/16 08:45:04;;;;;;;6.63;1.60;;;;;;;;;;4983686;28;20439;-74
2022/07/16 08:47:30;;;;;;;11.65;1.85;;;;;;;;;;5015848;28;20093;-74
2022/07/16 08:49:55;;;;;;;6.63;1.70;;;;;;;;;;5011141;28;20120;-74
2022/07/16 08:52:21;;;;;;;8.95;1.63;;;;;;;;;;4999916;28;20121;-74
2022/07/16 08:54:47;;;;;;;7.22;1.55;;;;;;;;;;5018527;28;20034;-74
2022/07/16 08:57:14;;;;;;;6.88;1.08;;;;;;;;;;5004558;28;20076;-75
2022/07/16 08:59:39;;;;;;;7.57;1.58;;;;;;;;;;4998649;28;20113;-74
2022/07/16 09:02:04;;;;;;;6.30;1.00;;;;;;;;;;5016073;28;20042;-74
2022/07/16 09:04:30;;;;;;;7.00;1.58;;;;;;;;;;5019477;28;20060;-74
2022/07/16 09:06:56;;;;;;;6.30;0.90;;;;;;;;;;4984796;28;20042;-74
2022/07/16 09:09:21;;;;;;;5.03;1.20;;;;;;;;;;4982304;28;20113;-75
2022/07/16 09:11:47;;;;;;;10.30;1.38;;;;;;;;;;5001210;28;20069;-76
2022/07/16 09:14:14;;;;;;;4.85;0.90;;;;;;;;;;4998787;28;20532;-74
2022/07/16 09:16:46;;;;;;;4.55;1.20;;;;;;;;;;5001098;28;20037;-73
2022/07/16 09:19:19;;;;;;;6.03;1.10;;;;;;;;;;5015165;28;20026;-73
2022/07/16 09:21:59;;;;;;;6.22;1.38;;;;;;;;;;4997838;28;20037;-71
2022/07/16 09:24:38;;;;;;;5.22;1.15;;;;;;;;;;4999361;28;20030;-72
2022/07/16 09:27:05;;;;;;;6.07;0.90;;;;;;;;;;5013362;28;20049;-72
2022/07/16 09:29:33;;;;;;;6.60;1.33;;;;;;;;;;4976302;28;20029;-72
2022/07/16 09:31:58;;;;;;;10.10;1.63;;;;;;;;;;4989902;28;20050;-70
2022/07/16 09:34:24;;;;;;;7.13;1.17;;;;;;;;;;4999686;28;20084;-72
2022/07/16 09:37:00;;;;;;;7.18;1.70;;;;;;;;;;5001761;28;20072;-72
2022/07/16 09:39:25;;;;;;;6.50;1.65;;;;;;;;;;5000704;28;20036;-71
2022/07/16 09:41:51;;;;;;;6.25;1.20;;;;;;;;;;5001208;28;20531;-72
2022/07/16 09:44:18;;;;;;;5.30;1.15;;;;;;;;;;4999403;28;20041;-74
2022/07/16 09:47:12;;;;;;;5.20;0.90;;;;;;;;;;4998264;28;20081;-74
2022/07/16 09:49:38;;;;;;;13.27;1.27;;;;;;;;;;4999217;28;20109;-76
2022/07/16 09:52:06;;;;;;;4.47;1.10;;;;;;;;;;4985330;28;20057;-76
2022/07/16 09:54:34;;;;;;;4.30;0.88;;;;;;;;;;5001384;28;20034;-76
2022/07/16 09:57:11;;;;;;;5.10;1.17;;;;;;;;;;5000519;28;20127;-74
2022/07/16 09:59:37;;;;;;;4.88;1.30;;;;;;;;;;5002616;28;20449;-77
2022/07/16 10:02:03;;;;;;;6.60;1.35;;;;;;;;;;4999780;28;20052;-74
2022/07/16 10:04:28;;;;;;;3.17;1.08;;;;;;;;;;5025077;28;20057;-75
2022/07/16 10:06:53;;;;;;;8.45;1.25;;;;;;;;;;5016066;28;20457;-75
2022/07/16 10:09:19;;;;;;;10.73;1.70;;;;;;;;;;5001702;28;20565;-74
2022/07/16 10:11:44;;;;;;;3.35;0.95;;;;;;;;;;5001510;28;20069;-74
2022/07/16 10:14:10;;;;;;;5.53;1.20;;;;;;;;;;4983706;28;20036;-71
2022/07/16 10:16:45;;;;;;;6.72;1.15;;;;;;;;;;4998108;28;20135;-70
2022/07/16 10:19:10;;;;;;;4.07;0.93;;;;;;;;;;4998495;28;20445;-71
2022/07/16 10:21:36;;;;;;;6.57;1.02;;;;;;;;;;4998725;28;20041;-73
2022/07/16 10:24:13;;;;;;;4.15;0.85;;;;;;;;;;4991732;28;20474;-74
2022/07/16 10:26:39;;;;;;;5.05;1.05;;;;;;;;;;4988182;28;20033;-74
2022/07/16 10:29:04;;;;;;;6.25;1.00;;;;;;;;;;4997163;28;20124;-74
2022/07/16 10:34:37;;;;;;;7.35;1.08;;;;;;;;;;5013710;28;20572;-73
2022/07/16 10:37:04;;;;;;;3.65;1.15;;;;;;;;;;5014487;28;20091;-73
2022/07/16 10:39:29;;;;;;;4.55;0.95;;;;;;;;;;4980209;28;20094;-73
2022/07/16 10:41:59;;;;;;;3.60;1.00;;;;;;;;;;4999417;28;20034;-74
2022/07/16 10:44:42;;;;;;;4.05;0.85;;;;;;;;;;4998081;28;20034;-73
2022/07/16 10:47:07;;;;;;;6.75;1.58;;;;;;;;;;4995934;28;20045;-74
2022/07/16 10:49:32;;;;;;;6.10;0.85;;;;;;;;;;5001881;28;20048;-74
2022/07/16 10:52:16;;;;;;;2.55;0.75;;;;;;;;;;5010096;28;20457;-71
2022/07/16 10:54:41;;;;;;;11.23;1.80;;;;;;;;;;5014618;28;20045;-71
2022/07/16 10:57:09;;;;;;;5.53;0.93;;;;;;;;;;4999342;28;20037;-71
2022/07/16 10:59:36;;;;;;;2.60;0.80;;;;;;;;;;5000315;28;20041;-70
2022/07/16 11:02:09;;;;;;;7.30;1.33;;;;;;;;;;4995182;28;20096;-71
2022/07/16 11:04:45;;;;;;;3.47;0.90;;;;;;;;;;4993704;28;20034;-72
2022/07/16 11:07:18;;;;;;;4.68;0.93;;;;;;;;;;4996686;28;20030;-69
2022/07/16 11:09:45;;;;;;;5.18;1.08;;;;;;;;;;5013998;28;20045;-69
2022/07/16 11:12:11;;;;;;;5.50;1.10;;;;;;;;;;4999400;28;20042;-69
2022/07/16 11:14:37;;;;;;;4.55;1.00;;;;;;;;;;4998994;28;20180;-69
2022/07/16 11:17:03;;;;;;;6.20;1.63;;;;;;;;;;4994892;28;20091;-70
2022/07/16 11:19:28;;;;;;;5.00;1.10;;;;;;;;;;5000030;28;20034;-68
2022/07/16 11:21:55;;;;;;;6.90;0.93;;;;;;;;;;5002576;28;20045;-72
2022/07/16 11:24:21;;;;;;;4.18;1.10;;;;;;;;;;4985966;28;20050;-72
2022/07/16 11:26:48;;;;;;;5.28;0.80;;;;;;;;;;5016763;28;20073;-71
2022/07/16 11:29:13;;;;;;;8.55;1.17;;;;;;;;;;5001841;28;20037;-71
2022/07/16 11:31:38;;;;;;;5.43;1.40;;;;;;;;;;4998567;28;20124;-72
2022/07/16 11:34:08;;;;;;;3.90;1.05;;;;;;;;;;4993996;28;20072;-72
2022/07/16 11:36:37;;;;;;;3.17;1.00;;;;;;;;;;5012768;28;20478;-72
2022/07/16 11:39:06;;;;;;;5.25;0.90;;;;;;;;;;5010176;28;20038;-72
2022/07/16 11:41:32;;;;;;;6.72;1.25;;;;;;;;;;5016316;28;20362;-72
2022/07/16 11:43:58;;;;;;;4.30;0.85;;;;;;;;;;4996897;28;20060;-71
2022/07/16 11:46:25;;;;;;;6.18;1.10;;;;;;;;;;5015768;28;20271;-72
2022/07/16 11:48:50;;;;;;;6.63;1.30;;;;;;;;;;4986672;28;20394;-71
2022/07/16 11:51:16;;;;;;;4.03;1.15;;;;;;;;;;4966385;28;20026;-71
2022/07/16 11:53:42;;;;;;;5.43;1.13;;;;;;;;;;5012717;28;20042;-71
2022/07/16 11:56:08;;;;;;;7.07;1.90;;;;;;;;;;4991910;28;20037;-71
2022/07/16 11:58:34;;;;;;;7.93;1.52;;;;;;;;;;5004960;28;20048;-71
2022/07/16 12:00:59;;;;;;;6.57;1.30;;;;;;;;;;5022447;28;20034;-71
2022/07/16 12:03:25;;;;;;;5.57;1.40;;;;;;;;;;5023058;28;20112;-71
2022/07/16 12:06:03;;;;;;;5.43;0.98;;;;;;;;;;5004122;28;20129;-71
2022/07/16 12:08:29;;;;;;;9.63;2.05;;;;;;;;;;5001263;28;20040;-71
2022/07/16 12:11:05;;;;;;;5.47;1.48;;;;;;;;;;5004218;28;20022;-70
2022/07/16 12:13:30;;;;;;;3.92;1.08;;;;;;;;;;4984707;28;20042;-71
2022/07/16 12:15:57;;;;;;;6.47;1.20;;;;;;;;;;5015436;28;20144;-73
2022/07/16 12:18:23;;;;;;;7.35;1.10;;;;;;;;;;4998134;28;20068;-74
2022/07/16 12:20:49;;;;;;;4.40;1.05;;;;;;;;;;4985306;28;20502;-74
2022/07/16 12:23:15;;;;;;;4.55;0.90;;;;;;;;;;4986476;28;20030;-74
2022/07/16 12:25:41;;;;;;;5.60;0.90;;;;;;;;;;4983392;28;20117;-74
2022/07/16 12:28:11;;;;;;;6.25;1.58;;;;;;;;;;4972469;28;20041;-74
2022/07/16 12:30:41;;;;;;;8.02;1.20;;;;;;;;;;4973042;28;20131;-74
2022/07/16 12:33:16;;;;;;;4.03;1.40;;;;;;;;;;4990463;28;20536;-74
2022/07/16 12:35:45;;;;;;;7.30;1.45;;;;;;;;;;5005127;28;20034;-74
2022/07/16 12:38:39;;;;;;;5.78;1.00;;;;;;;;;;4998853;28;20132;-74
2022/07/16 12:41:12;;;;;;;4.25;1.17;;;;;;;;;;4995874;28;20046;-74
2022/07/16 12:43:39;;;;;;;10.60;1.85;;;;;;;;;;5003033;28;20030;-72
2022/07/16 12:46:06;;;;;;;7.47;1.73;;;;;;;;;;5001694;28;20053;-73
2022/07/16 12:48:39;;;;;;;5.65;1.27;;;;;;;;;;4995604;28;20042;-74
2022/07/16 12:51:04;;;;;;;6.20;1.35;;;;;;;;;;4985265;28;20375;-73
2022/07/16 12:53:29;;;;;;;10.55;1.42;;;;;;;;;;5018642;28;20052;-73
2022/07/16 12:58:48;;;;;;;4.60;1.08;;;;;;;;;;4989695;28;20513;-73
2022/07/16 13:01:15;;;;;;;11.50;1.35;;;;;;;;;;5017883;28;20022;-72
2022/07/16 13:03:40;;;;;;;6.40;1.20;;;;;;;;;;5001387;28;20034;-72
2022/07/16 13:06:06;;;;;;;5.60;1.10;;;;;;;;;;5003740;28;20046;-72
2022/07/16 13:08:31;;;;;;;5.60;1.23;;;;;;;;;;4999469;28;20030;-72
2022/07/16 13:10:57;;;;;;;5.75;1.40;;;;;;;;;;4999315;28;20097;-72
2022/07/16 13:13:22;;;;;;;4.47;1.27;;;;;;;;;;5000413;28;20128;-72
2022/07/16 13:15:47;;;;;;;6.00;1.23;;;;;;;;;;4990616;28;20418;-72
2022/07/16 13:18:13;;;;;;;5.65;1.20;;;;;;;;;;5021660;28;20497;-73
2022/07/16 13:20:38;;;;;;;9.05;1.80;;;;;;;;;;5001737;28;20029;-72
2022/07/16 13:23:04;;;;;;;6.78;1.92;;;;;;;;;;4986874;28;20490;-74
2022/07/16 13:25:29;;;;;;;6.15;1.25;;;;;;;;;;4985356;28;20030;-73
2022/07/16 13:27:54;;;;;;;7.40;1.45;;;;;;;;;;4981812;28;20061;-73
2022/07/16 13:30:20;;;;;;;6.57;1.38;;;;;;;;;;5016410;28;20046;-73
2022/07/16 13:32:45;;;;;;;4.10;1.20;;;;;;;;;;4995780;28;20133;-71
2022/07/16 13:35:11;;;;;;;6.43;1.35;;;;;;;;;;4986798;28;20061;-72
2022/07/16 13:37:36;;;;;;;5.57;1.48;;;;;;;;;;5000935;28;20030;-71
2022/07/16 13:40:03;;;;;;;8.02;1.35;;;;;;;;;;4998423;28;20391;-71
2022/07/16 13:42:28;;;;;;;6.15;1.30;;;;;;;;;;4998342;28;20041;-72
2022/07/16 13:44:53;;;;;;;7.50;1.45;;;;;;;;;;4996520;28;20166;-72
2022/07/16 13:47:19;;;;;;;6.78;1.55;;;;;;;;;;5003861;28;20120;-72
2022/07/16 13:49:44;;;;;;;5.90;1.20;;;;;;;;;;5019978;28;20525;-72
2022/07/16 13:52:09;;;;;;;5.43;1.38;;;;;;;;;;4995935;28;20168;-72
2022/07/16 13:54:35;;;;;;;10.40;2.10;;;;;;;;;;4999073;28;20069;-72
2022/07/16 13:59:44;;;;;;;7.50;1.70;;;;;;;;;;4999822;28;20034;-72
2022/07/16 14:02:09;;;;;;;4.60;1.15;;;;;;;;;;4992140;28;20398;-72
2022/07/16 14:04:35;;;;;;;5.10;1.30;;;;;;;;;;5005735;28;20050;-72
2022/07/16 14:07:00;;;;;;;5.68;1.17;;;;;;;;;;5001584;28;20476;-73
2022/07/16 14:09:25;;;;;;;5.32;1.33;;;;;;;;;;4988674;28;20088;-72
2022/07/16 14:11:51;;;;;;;5.95;1.63;;;;;;;;;;4999441;28;20065;-72
2022/07/16 14:14:17;;;;;;;6.22;1.55;;;;;;;;;;5000728;28;20184;-72
2022/07/16 14:16:42;;;;;;;4.22;1.52;;;;;;;;;;5004125;28;20026;-73
2022/07/16 14:19:08;;;;;;;7.32;1.88;;;;;;;;;;4999576;28;20124;-72
2022/07/16 14:21:39;;;;;;;5.35;0.95;;;;;;;;;;5002409;28;20494;-73
2022/07/16 14:24:05;;;;;;;7.72;1.88;;;;;;;;;;5000130;28;20438;-72
2022/07/16 14:26:30;;;;;;;5.10;1.20;;;;;;;;;;4971338;28;20037;-72
2022/07/16 14:28:57;;;;;;;3.88;1.10;;;;;;;;;;4985181;28;20138;-72
2022/07/16 14:31:22;;;;;;;6.45;1.30;;;;;;;;;;4999454;28;20029;-72
2022/07/16 14:33:47;;;;;;;6.32;1.35;;;;;;;;;;5007573;28;20045;-73
2022/07/16 14:36:13;;;;;;;5.38;1.75;;;;;;;;;;4997707;28;20544;-72
2022/07/16 14:38:38;;;;;;;3.78;0.88;;;;;;;;;;5015908;28;20143;-72
2022/07/16 14:41:06;;;;;;;4.85;1.38;;;;;;;;;;4998606;28;20089;-73
2022/07/16 14:43:32;;;;;;;7.65;1.80;;;;;;;;;;5016024;28;20037;-73
2022/07/16 14:45:57;;;;;;;4.28;1.15;;;;;;;;;;5001810;28;20029;-72